Time;durP1;ratioP1;P1;durP2;ratioP2;P2;SDS_P1;SDS_P2;PMS_P1;PMS_P2;Temp;Humidity;BMP_temperature;BMP_pressure;BME280_temperature;BME280_humidity;BME280_pressure;Samples;Min_cycle;Max_cycle;Signal;HPM_P1;HPM_P2
2022/11/02 00:00:59;;;;;;;11.77;1.97;;;9.60;99.90;;;;;;5093817;28;20194;-72
2022/11/02 00:03:24;;;;;;;5.97;1.63;;;9.30;99.90;;;;;;5088805;28;20224;-80
2022/11/02 00:05:50;;;;;;;6.00;1.70;;;9.40;99.90;;;;;;5089055;28;20179;-76
2022/11/02 00:08:16;;;;;;;10.83;1.90;;;9.40;99.90;;;;;;5095683;28;20186;-83
2022/11/02 00:10:41;;;;;;;6.13;2.67;;;9.20;99.90;;;;;;5095471;28;20186;-81
2022/11/02 00:13:07;;;;;;;3.63;1.70;;;9.30;99.90;;;;;;5093641;28;20260;-78
2022/11/02 00:15:35;;;;;;;8.10;2.37;;;9.50;99.90;;;;;;5095651;28;20175;-75
2022/11/02 00:18:10;;;;;;;12.87;1.83;;;9.50;99.90;;;;;;5085044;28;20186;-72
2022/11/02 00:20:38;;;;;;;7.43;2.90;;;-4.80;99.90;;;;;;5095551;28;20274;-82
2022/11/02 00:23:06;;;;;;;7.27;2.20;;;-4.60;99.90;;;;;;5095572;28;20339;-79
2022/11/02 00:25:32;;;;;;;8.60;2.83;;;-5.30;99.90;;;;;;5088925;28;20258;-75
2022/11/02 00:27:59;;;;;;;8.57;2.80;;;-6.20;99.90;;;;;;5083652;28;20189;-81
2022/11/02 00:30:24;;;;;;;15.37;2.17;;;-5.50;99.90;;;;;;5094716;28;20194;-78
2022/11/02 00:32:50;;;;;;;5.83;2.07;;;-5.40;99.90;;;;;;5094486;28;20184;-76
2022/11/02 00:35:16;;;;;;;6.80;2.67;;;-5.20;99.90;;;;;;5085892;28;20209;-78
2022/11/02 00:37:42;;;;;;;16.50;2.93;;;-4.70;99.90;;;;;;5100036;28;20210;-73
2022/11/02 00:40:08;;;;;;;6.17;2.03;;;-5.30;99.90;;;;;;5096028;28;20186;-79
2022/11/02 00:42:33;;;;;;;5.63;1.87;;;-6.20;99.90;;;;;;5099799;28;20486;-75
2022/11/02 00:44:59;;;;;;;7.57;2.40;;;-5.10;99.90;;;;;;5098185;28;20205;-78
2022/11/02 00:47:25;;;;;;;2.83;1.13;;;-4.70;99.90;;;;;;5092872;28;20185;-80
2022/11/02 00:49:51;;;;;;;9.50;2.53;;;-4.30;99.90;;;;;;5097938;28;20544;-84
2022/11/02 00:52:16;;;;;;;8.80;2.20;;;-5.30;99.90;;;;;;5092065;28;20178;-79
2022/11/02 00:54:43;;;;;;;8.10;2.17;;;-4.20;99.90;;;;;;5092300;28;20208;-83
2022/11/02 00:57:08;;;;;;;7.43;2.37;;;-5.60;99.90;;;;;;5095600;28;20182;-76
2022/11/02 00:59:34;;;;;;;4.00;2.20;;;-5.30;99.90;;;;;;5099171;28;20612;-80
2022/11/02 01:02:00;;;;;;;9.80;4.03;;;-6.50;99.90;;;;;;5098577;28;20562;-78
2022/11/02 01:04:25;;;;;;;12.33;2.70;;;-5.70;99.90;;;;;;5098220;28;20237;-80
2022/11/02 01:06:51;;;;;;;3.33;1.83;;;-3.60;99.90;;;;;;5099040;28;20238;-77
2022/11/02 01:09:17;;;;;;;7.30;1.93;;;-4.50;99.90;;;;;;5103796;28;20175;-76
2022/11/02 01:11:43;;;;;;;4.00;1.70;;;-5.20;99.90;;;;;;5099432;28;20178;-76
2022/11/02 01:14:09;;;;;;;8.63;2.17;;;-5.70;99.90;;;;;;5091431;28;20182;-77
2022/11/02 01:16:35;;;;;;;12.60;3.13;;;-5.50;99.90;;;;;;5090155;28;20195;-81
2022/11/02 01:19:01;;;;;;;10.63;3.57;;;-5.90;99.90;;;;;;5086885;28;20197;-76
2022/11/02 01:21:27;;;;;;;6.73;2.23;;;-4.80;99.90;;;;;;5088749;28;20193;-78
2022/11/02 01:23:54;;;;;;;4.17;1.03;;;-8.40;99.90;;;;;;5088137;28;20210;-76
2022/11/02 01:26:20;;;;;;;5.07;2.13;;;-7.40;99.90;;;;;;5099042;28;20481;-70
2022/11/02 01:28:46;;;;;;;3.00;2.10;;;-6.90;99.90;;;;;;5098394;28;20185;-75
2022/11/02 01:31:12;;;;;;;7.83;2.27;;;-6.60;99.90;;;;;;5093161;28;20605;-69
2022/11/02 01:33:43;;;;;;;8.47;1.90;;;-7.10;99.90;;;;;;5091075;28;20204;-71
2022/11/02 01:36:09;;;;;;;3.33;2.13;;;-5.70;99.90;;;;;;5092130;28;20186;-77
2022/11/02 01:38:34;;;;;;;3.80;1.50;;;-6.30;99.90;;;;;;5087113;28;20194;-75
2022/11/02 01:41:00;;;;;;;9.70;2.20;;;-5.80;99.90;;;;;;5092607;28;20206;-78
2022/11/02 01:43:27;;;;;;;4.17;2.10;;;-6.60;99.90;;;;;;5096454;28;20291;-72
2022/11/02 01:46:00;;;;;;;4.57;2.07;;;-7.80;99.90;;;;;;5091414;28;20613;-76
2022/11/02 01:48:35;;;;;;;9.60;2.70;;;-6.90;99.90;;;;;;5094864;28;20183;-77
2022/11/02 01:51:05;;;;;;;6.03;2.43;;;-5.50;99.90;;;;;;5086806;28;20267;-74
2022/11/02 01:53:34;;;;;;;7.10;1.90;;;-6.10;99.90;;;;;;5087127;28;20273;-76
2022/11/02 01:56:00;;;;;;;6.97;2.07;;;-5.60;99.90;;;;;;5093402;28;20187;-73
2022/11/02 01:58:26;;;;;;;9.70;2.13;;;-6.00;99.90;;;;;;5098583;28;20213;-74
2022/11/02 02:00:53;;;;;;;2.87;1.83;;;-7.30;99.90;;;;;;5098830;28;20179;-71
2022/11/02 02:03:20;;;;;;;6.27;1.90;;;-7.70;99.90;;;;;;5094401;28;20238;-79
2022/11/02 02:05:58;;;;;;;6.20;2.17;;;-7.00;99.90;;;;;;5098674;28;20490;-75
2022/11/02 02:08:25;;;;;;;8.67;2.33;;;-7.40;99.90;;;;;;5088459;28;20178;-73
2022/11/02 02:10:55;;;;;;;11.77;3.63;;;-7.50;99.90;;;;;;5094177;28;20266;-75
2022/11/02 02:13:21;;;;;;;5.13;1.90;;;-7.00;99.90;;;;;;5098256;28;20498;-78
2022/11/02 02:16:10;;;;;;;8.73;2.60;;;-6.10;99.90;;;;;;5090782;28;20186;-72
2022/11/02 02:18:52;;;;;;;9.87;2.93;;;-6.50;99.90;;;;;;5086522;28;20186;-74
2022/11/02 02:21:36;;;;;;;12.30;2.97;;;-5.50;99.90;;;;;;5098283;28;20238;-71
2022/11/02 02:24:05;;;;;;;14.80;3.17;;;-5.00;99.90;;;;;;5082606;28;20288;-78
2022/11/02 02:26:43;;;;;;;6.70;2.00;;;-4.80;99.90;;;;;;5090158;28;20175;-73
2022/11/02 02:29:38;;;;;;;8.53;2.70;;;-6.00;99.90;;;;;;5088023;28;20213;-78
2022/11/02 02:32:29;;;;;;;10.87;2.60;;;-6.80;99.90;;;;;;5086655;28;20205;-78
2022/11/02 02:35:18;;;;;;;6.40;2.20;;;-6.00;99.90;;;;;;5097054;28;20191;-80
2022/11/02 02:37:52;;;;;;;10.40;2.63;;;-7.70;99.90;;;;;;5102958;28;20199;-85
2022/11/02 02:40:24;;;;;;;8.60;3.00;;;-7.80;99.90;;;;;;5093544;28;20236;-78
2022/11/02 02:42:57;;;;;;;8.93;1.67;;;-6.30;99.90;;;;;;5095695;28;20205;-73
2022/11/02 02:45:38;;;;;;;7.60;2.93;;;-6.30;99.90;;;;;;5096005;28;20261;-75
2022/11/02 02:48:19;;;;;;;13.40;2.40;;;-4.60;99.90;;;;;;5089563;28;20185;-71
2022/11/02 02:50:58;;;;;;;11.93;2.43;;;-7.30;99.90;;;;;;5094110;28;20181;-77
2022/11/02 02:53:33;;;;;;;13.17;3.03;;;-4.80;99.90;;;;;;5096788;28;20197;-75
2022/11/02 02:56:01;;;;;;;13.07;2.57;;;-5.80;99.90;;;;;;5105027;28;20243;-76
2022/11/02 02:58:34;;;;;;;10.20;2.17;;;-6.50;99.90;;;;;;5095907;28;20197;-75
2022/11/02 03:01:00;;;;;;;10.07;2.13;;;-6.50;99.90;;;;;;5091619;28;20193;-76
2022/11/02 03:03:30;;;;;;;9.37;2.53;;;-7.30;99.90;;;;;;5101580;28;20228;-76
2022/11/02 03:06:09;;;;;;;9.97;2.63;;;-6.20;99.90;;;;;;5083457;28;20183;-73
2022/11/02 03:08:38;;;;;;;11.07;2.43;;;-6.30;99.90;;;;;;5084354;28;20183;-80
2022/11/02 03:11:18;;;;;;;8.57;2.47;;;-6.60;99.90;;;;;;5090034;28;20486;-70
2022/11/02 03:13:49;;;;;;;7.73;2.77;;;-7.10;99.90;;;;;;5090025;28;20522;-82
2022/11/02 03:16:30;;;;;;;7.80;3.13;;;-4.30;99.90;;;;;;5088318;28;20209;-76
2022/11/02 03:19:14;;;;;;;8.63;3.27;;;-3.80;99.90;;;;;;5091336;28;20185;-74
2022/11/02 03:21:42;;;;;;;6.23;1.93;;;-3.80;99.90;;;;;;5086743;28;20186;-74
2022/11/02 03:24:38;;;;;;;6.30;2.63;;;-3.90;99.90;;;;;;5093157;28;20210;-85
2022/11/02 03:27:28;;;;;;;8.17;2.83;;;-6.20;99.90;;;;;;5089707;28;20191;-75
2022/11/02 03:30:11;;;;;;;10.50;2.23;;;-4.10;99.90;;;;;;5083076;28;20190;-73
2022/11/02 03:33:07;;;;;;;8.23;2.13;;;-4.30;99.90;;;;;;5089989;28;20193;-70
2022/11/02 03:35:44;;;;;;;8.33;2.20;;;-6.10;99.90;;;;;;5093424;28;20715;-75
2022/11/02 03:38:16;;;;;;;10.80;2.77;;;-5.80;99.90;;;;;;5093312;28;20190;-71
2022/11/02 03:40:45;;;;;;;8.90;3.57;;;-5.80;99.90;;;;;;5091478;28;20202;-85
2022/11/02 03:43:14;;;;;;;8.63;2.47;;;-5.40;99.90;;;;;;5097891;28;20300;-76
2022/11/02 03:45:47;;;;;;;14.23;3.40;;;-5.70;99.90;;;;;;5096506;28;20197;-78
2022/11/02 03:48:15;;;;;;;10.13;2.47;;;-5.30;99.90;;;;;;5096413;28;20178;-78
2022/11/02 03:50:47;;;;;;;16.97;3.70;;;-6.40;99.90;;;;;;5100819;28;20182;-76
2022/11/02 03:53:25;;;;;;;14.17;2.87;;;-4.60;99.90;;;;;;5091188;28;20590;-73
2022/11/02 03:55:57;;;;;;;11.57;3.70;;;-5.60;99.90;;;;;;5088164;28;20232;-72
2022/11/02 03:58:23;;;;;;;17.63;2.77;;;-6.40;99.90;;;;;;5088756;28;20534;-76
2022/11/02 04:00:56;;;;;;;7.33;2.07;;;-5.10;99.90;;;;;;5095831;28;20231;-71
2022/11/02 04:03:23;;;;;;;7.77;2.30;;;-4.70;99.90;;;;;;5095632;28;20241;-74
2022/11/02 04:05:49;;;;;;;5.67;2.53;;;-5.70;99.90;;;;;;5086597;28;20242;-76
2022/11/02 04:08:21;;;;;;;10.23;3.13;;;-6.00;99.90;;;;;;5086117;28;20181;-76
2022/11/02 04:16:24;;;;;;;8.83;3.33;;;-3.20;99.90;;;;;;5064889;28;20204;-72
2022/11/02 04:21:34;;;;;;;12.27;4.07;;;-5.20;99.90;;;;;;5090750;28;20192;-70
2022/11/02 04:26:45;;;;;;;11.13;3.70;;;-5.20;99.90;;;;;;5088802;28;20197;-71
2022/11/02 04:29:10;;;;;;;5.63;1.83;;;-5.70;99.90;;;;;;5094903;28;20182;-71
2022/11/02 04:31:36;;;;;;;10.70;3.10;;;-5.80;99.90;;;;;;5089533;28;20195;-74
2022/11/02 04:34:02;;;;;;;14.60;2.70;;;-5.80;99.90;;;;;;5087777;28;20201;-75
2022/11/02 04:36:29;;;;;;;11.97;3.33;;;-5.10;99.90;;;;;;5084384;28;20492;-86
2022/11/02 04:38:55;;;;;;;11.40;3.00;;;-4.30;99.90;;;;;;5087577;28;20190;-73
2022/11/02 04:41:40;;;;;;;8.50;3.67;;;-4.70;99.90;;;;;;5101174;28;20179;-71
2022/11/02 04:44:07;;;;;;;8.30;2.33;;;-4.30;99.90;;;;;;5102695;28;20206;-74
2022/11/02 04:46:34;;;;;;;12.90;2.40;;;-5.70;99.90;;;;;;5088726;28;20170;-71
2022/11/02 04:49:01;;;;;;;9.07;2.47;;;-6.00;99.90;;;;;;5095236;28;20175;-72
2022/11/02 04:51:28;;;;;;;7.77;2.83;;;-6.20;99.90;;;;;;5095611;28;20185;-75
2022/11/02 04:53:56;;;;;;;4.57;2.40;;;-7.00;99.90;;;;;;5095193;28;20221;-84
2022/11/02 04:56:23;;;;;;;8.43;2.87;;;-6.50;99.90;;;;;;5087829;28;20174;-77
2022/11/02 04:58:50;;;;;;;9.73;3.03;;;-6.30;99.90;;;;;;5085890;28;20178;-72
2022/11/02 05:01:17;;;;;;;16.83;3.13;;;-5.70;99.90;;;;;;5082707;28;20186;-71
2022/11/02 05:03:46;;;;;;;16.03;3.20;;;-5.30;99.90;;;;;;5093863;28;20566;-73
2022/11/02 05:06:12;;;;;;;6.13;2.17;;;-4.70;99.90;;;;;;5083427;28;20182;-74
2022/11/02 05:08:38;;;;;;;13.13;3.47;;;-4.50;99.90;;;;;;5094003;28;20175;-73
2022/11/02 05:11:03;;;;;;;13.23;3.27;;;-5.00;99.90;;;;;;5095561;28;20213;-73
2022/11/02 05:13:29;;;;;;;8.73;3.10;;;-4.40;99.90;;;;;;5085829;28;20279;-71
2022/11/02 05:15:56;;;;;;;12.47;2.93;;;-4.80;99.90;;;;;;5082604;28;20625;-76
2022/11/02 05:18:23;;;;;;;10.60;4.03;;;-4.70;99.90;;;;;;5090514;28;20183;-72
2022/11/02 05:20:50;;;;;;;12.07;2.53;;;-4.90;99.90;;;;;;5088476;28;20179;-76
2022/11/02 05:23:17;;;;;;;20.07;4.23;;;-4.60;99.90;;;;;;5096701;28;20236;-77
2022/11/02 05:25:52;;;;;;;14.37;3.80;;;-4.80;99.90;;;;;;5098680;28;20178;-76
2022/11/02 05:28:18;;;;;;;18.87;4.20;;;-5.20;99.90;;;;;;5091439;28;20174;-74
2022/11/02 05:30:44;;;;;;;14.20;3.03;;;-4.40;99.90;;;;;;5098975;28;20181;-76
2022/11/02 05:33:09;;;;;;;14.50;4.73;;;-5.10;99.90;;;;;;5083283;28;20237;-78
2022/11/02 05:35:35;;;;;;;10.13;2.57;;;-5.00;99.90;;;;;;5093524;28;20171;-75
2022/11/02 05:38:01;;;;;;;19.40;3.70;;;-5.40;99.90;;;;;;5092232;28;20190;-73
2022/11/02 05:40:27;;;;;;;12.13;3.97;;;-5.30;99.90;;;;;;5098739;28;20210;-73
2022/11/02 05:43:00;;;;;;;10.70;3.83;;;-5.10;99.90;;;;;;5098584;28;20202;-83
2022/11/02 05:45:26;;;;;;;19.93;5.00;;;-5.10;99.90;;;;;;5096601;28;20186;-77
2022/11/02 05:47:52;;;;;;;15.13;3.70;;;-5.20;99.90;;;;;;5091821;28;20176;-72
2022/11/02 05:50:18;;;;;;;15.17;4.17;;;-5.30;99.90;;;;;;5085453;28;20645;-74
2022/11/02 05:52:44;;;;;;;11.27;3.80;;;-5.50;99.90;;;;;;5096674;28;20183;-73
2022/11/02 05:55:10;;;;;;;8.27;3.27;;;-5.40;99.90;;;;;;5098635;28;20232;-77
2022/11/02 05:57:36;;;;;;;10.97;3.10;;;-5.60;99.90;;;;;;5094598;28;20620;-73
2022/11/02 06:00:04;;;;;;;18.93;4.50;;;-4.70;99.90;;;;;;5089857;28;20531;-71
2022/11/02 06:02:29;;;;;;;12.10;3.30;;;-5.00;99.90;;;;;;5096234;28;20560;-71
2022/11/02 06:04:55;;;;;;;18.30;3.77;;;-4.20;99.90;;;;;;5088136;28;20273;-71
2022/11/02 06:07:21;;;;;;;12.43;3.37;;;-4.70;99.90;;;;;;5088743;28;20178;-71
2022/11/02 06:09:47;;;;;;;11.57;3.77;;;-5.20;99.90;;;;;;5079106;28;20476;-71
2022/11/02 06:12:13;;;;;;;11.83;3.30;;;-5.00;99.90;;;;;;5097905;28;20579;-78
2022/11/02 06:14:39;;;;;;;10.63;2.60;;;-3.80;99.90;;;;;;5090556;28;20259;-70
2022/11/02 06:17:04;;;;;;;15.13;3.67;;;-5.20;99.90;;;;;;5097491;28;20546;-71
2022/11/02 06:19:30;;;;;;;17.50;3.60;;;-5.10;99.90;;;;;;5092227;28;20190;-69
2022/11/02 06:21:56;;;;;;;11.03;3.33;;;-4.50;99.90;;;;;;5092518;28;20478;-71
2022/11/02 06:24:22;;;;;;;12.43;3.40;;;-5.90;99.90;;;;;;5097554;28;20285;-75
2022/11/02 06:26:47;;;;;;;13.03;3.90;;;-5.60;99.90;;;;;;5097989;28;20171;-82
2022/11/02 06:29:13;;;;;;;7.77;3.30;;;-4.80;99.90;;;;;;5095964;28;20181;-72
2022/11/02 06:31:39;;;;;;;23.87;4.93;;;-4.70;99.90;;;;;;5091542;28;20175;-75
2022/11/02 06:34:05;;;;;;;15.73;3.93;;;-5.70;99.90;;;;;;5080211;28;20611;-72
2022/11/02 06:36:31;;;;;;;14.87;3.63;;;-5.80;99.90;;;;;;5096728;28;20175;-75
2022/11/02 06:38:57;;;;;;;17.13;5.03;;;-6.10;99.90;;;;;;5097962;28;20205;-74
2022/11/02 06:41:22;;;;;;;13.50;3.73;;;-6.20;99.90;;;;;;5097546;28;20256;-73
2022/11/02 06:43:48;;;;;;;10.30;3.40;;;-7.20;99.90;;;;;;5097552;28;20234;-77
2022/11/02 06:46:14;;;;;;;20.67;4.00;;;-6.20;99.90;;;;;;5097268;28;20179;-74
2022/11/02 06:48:40;;;;;;;20.57;4.13;;;-6.00;99.90;;;;;;5085556;28;20191;-72
2022/11/02 06:51:06;;;;;;;10.07;2.93;;;-5.90;99.90;;;;;;5086199;28;20232;-71
2022/11/02 06:53:32;;;;;;;11.37;3.77;;;-5.90;99.90;;;;;;5088917;28;20175;-71
2022/11/02 06:55:59;;;;;;;23.77;3.87;;;-4.70;99.90;;;;;;5091333;28;20178;-71
2022/11/02 06:58:25;;;;;;;17.63;4.17;;;-5.00;99.90;;;;;;5095834;28;20179;-79
2022/11/02 07:01:07;;;;;;;27.20;4.53;;;-4.50;99.90;;;;;;5096323;28;20221;-73
2022/11/02 07:03:33;;;;;;;16.63;3.90;;;-4.30;99.90;;;;;;5088346;28;20223;-76
2022/11/02 07:05:59;;;;;;;21.80;4.77;;;-4.50;99.90;;;;;;5089195;28;20479;-70
2022/11/02 07:08:26;;;;;;;11.13;3.70;;;-5.30;99.90;;;;;;5086733;28;20258;-73
2022/11/02 07:10:52;;;;;;;17.00;3.57;;;-6.70;99.90;;;;;;5091019;28;20661;-71
2022/11/02 07:13:18;;;;;;;18.87;5.87;;;-5.90;99.90;;;;;;5087331;28;20183;-70
2022/11/02 07:15:44;;;;;;;13.17;3.90;;;-4.00;99.90;;;;;;5096692;28;20179;-74
2022/11/02 07:18:11;;;;;;;16.43;3.53;;;-5.80;99.90;;;;;;5096906;28;20193;-71
2022/11/02 07:20:37;;;;;;;11.73;3.77;;;-6.10;99.90;;;;;;5089811;28;20178;-72
2022/11/02 07:23:03;;;;;;;19.47;3.40;;;-5.80;99.90;;;;;;5096117;28;20625;-71
2022/11/02 07:25:30;;;;;;;22.30;4.93;;;-5.90;99.90;;;;;;5078028;28;20539;-70
2022/11/02 07:27:58;;;;;;;12.80;3.37;;;-5.90;99.90;;;;;;5091408;28;20612;-69
2022/11/02 07:30:25;;;;;;;15.33;4.40;;;-5.90;99.90;;;;;;5091775;28;20270;-70
2022/11/02 07:32:51;;;;;;;16.20;3.33;;;-5.40;99.90;;;;;;5095965;28;20183;-70
2022/11/02 07:35:17;;;;;;;14.33;2.70;;;-7.10;99.90;;;;;;5095682;28;20190;-70
2022/11/02 07:37:43;;;;;;;12.13;3.27;;;-5.80;99.90;;;;;;5088955;28;21305;-70
2022/11/02 07:40:11;;;;;;;16.87;4.87;;;-4.80;99.90;;;;;;5095346;28;20194;-69
2022/11/02 07:42:46;;;;;;;15.20;4.97;;;-5.70;99.90;;;;;;5085776;28;20252;-68
2022/11/02 07:45:12;;;;;;;17.90;4.23;;;-5.40;99.90;;;;;;5090845;28;20283;-71
2022/11/02 07:47:44;;;;;;;24.37;4.40;;;-5.40;99.90;;;;;;5096128;28;20179;-72
2022/11/02 07:50:11;;;;;;;17.23;3.40;;;3.10;99.90;;;;;;5088719;28;20180;-71
2022/11/02 07:52:51;;;;;;;16.27;4.00;;;7.00;99.90;;;;;;5088054;28;20178;-71
2022/11/02 07:55:19;;;;;;;22.43;4.47;;;6.90;99.90;;;;;;5096027;28;20582;-72
2022/11/02 07:57:55;;;;;;;25.70;4.53;;;-6.20;99.90;;;;;;5083166;28;20181;-71
2022/11/02 08:00:21;;;;;;;8.00;3.27;;;-5.90;99.90;;;;;;5082617;28;20182;-70
2022/11/02 08:02:47;;;;;;;13.97;4.10;;;-7.00;99.90;;;;;;5088537;28;20516;-77
2022/11/02 08:05:13;;;;;;;14.00;3.57;;;-7.70;99.90;;;;;;5088348;28;20210;-70
2022/11/02 08:07:38;;;;;;;20.57;5.50;;;-7.70;99.90;;;;;;5095970;28;20263;-72
2022/11/02 08:10:05;;;;;;;17.77;3.23;;;-6.70;99.90;;;;;;5094338;28;20182;-71
2022/11/02 08:12:30;;;;;;;8.43;3.03;;;-7.00;99.90;;;;;;5090268;28;20207;-71
2022/11/02 08:14:57;;;;;;;30.50;5.27;;;-5.70;99.90;;;;;;5088570;28;20209;-74
2022/11/02 08:17:23;;;;;;;16.13;3.90;;;-5.40;99.90;;;;;;5091570;28;20182;-70
2022/11/02 08:19:49;;;;;;;14.70;3.90;;;-6.40;99.90;;;;;;5092584;28;20174;-71
2022/11/02 08:22:14;;;;;;;13.20;3.83;;;-5.50;99.90;;;;;;5088284;28;20188;-69
2022/11/02 08:24:40;;;;;;;12.27;4.33;;;-4.60;99.90;;;;;;5091264;28;20210;-70
2022/11/02 08:27:06;;;;;;;16.77;3.93;;;-5.10;99.90;;;;;;5094030;28;20185;-69
2022/11/02 08:29:31;;;;;;;18.53;5.37;;;-4.70;99.90;;;;;;5095512;28;20626;-68
2022/11/02 08:31:57;;;;;;;16.70;5.17;;;-6.70;99.90;;;;;;5095269;28;20184;-73
2022/11/02 08:34:23;;;;;;;14.63;4.63;;;-6.90;99.90;;;;;;5088670;28;20190;-72
2022/11/02 08:36:49;;;;;;;15.20;4.83;;;-5.80;99.90;;;;;;5096084;28;20589;-69
2022/11/02 08:39:14;;;;;;;10.37;3.10;;;-5.30;99.90;;;;;;5089478;28;20179;-68
2022/11/02 08:41:40;;;;;;;14.60;3.93;;;-5.80;99.90;;;;;;5089546;28;20482;-71
2022/11/02 08:44:06;;;;;;;17.10;3.30;;;-5.10;99.90;;;;;;5081499;28;20194;-69
2022/11/02 08:46:31;;;;;;;19.60;4.17;;;-5.70;99.90;;;;;;5085547;28;20182;-70
2022/11/02 08:48:57;;;;;;;16.27;4.47;;;-5.30;99.90;;;;;;5087182;28;20209;-69
2022/11/02 08:51:23;;;;;;;18.50;4.57;;;-4.40;99.90;;;;;;5088061;28;20186;-69
2022/11/02 08:53:49;;;;;;;18.20;4.43;;;-4.80;99.90;;;;;;5093257;28;20185;-66
2022/11/02 08:56:14;;;;;;;12.53;4.50;;;-3.70;99.90;;;;;;5089040;28;20586;-65
2022/11/02 08:58:40;;;;;;;17.57;4.17;;;-2.40;99.90;;;;;;5092081;28;20193;-68
2022/11/02 09:01:06;;;;;;;17.20;4.20;;;-2.80;99.90;;;;;;5098321;28;20225;-66
2022/11/02 09:03:32;;;;;;;21.07;5.27;;;-2.90;99.90;;;;;;5091069;28;20911;-70
2022/11/02 09:06:00;;;;;;;14.77;4.33;;;-4.50;99.90;;;;;;5084690;28;20187;-68
2022/11/02 09:08:26;;;;;;;17.70;4.83;;;-4.80;99.90;;;;;;5086674;28;20175;-66
2022/11/02 09:10:52;;;;;;;24.07;4.87;;;-4.50;99.90;;;;;;5096789;28;20190;-66
2022/11/02 09:13:23;;;;;;;27.97;5.53;;;-3.70;99.90;;;;;;5096952;28;20163;-69
2022/11/02 09:15:54;;;;;;;15.73;4.43;;;-3.40;99.90;;;;;;5092086;28;20182;-66
2022/11/02 09:18:20;;;;;;;15.23;4.13;;;-3.40;99.90;;;;;;5092251;28;20182;-68
2022/11/02 09:20:47;;;;;;;19.70;5.63;;;-4.50;99.90;;;;;;5097717;28;20484;-67
2022/11/02 09:23:15;;;;;;;16.33;4.07;;;-4.30;99.90;;;;;;5089914;28;20179;-69
2022/11/02 09:25:40;;;;;;;15.93;4.67;;;-4.50;99.90;;;;;;5090981;28;20177;-70
2022/11/02 09:28:07;;;;;;;13.40;4.80;;;-4.80;99.90;;;;;;5097463;28;20497;-65
2022/11/02 09:30:34;;;;;;;19.33;4.43;;;-4.40;99.90;;;;;;5084858;28;20172;-65
2022/11/02 09:33:03;;;;;;;14.90;3.80;;;-4.60;99.90;;;;;;5094863;28;20208;-65
2022/11/02 09:35:32;;;;;;;18.30;3.83;;;-3.40;99.90;;;;;;5086000;28;20186;-65
2022/11/02 09:37:58;;;;;;;16.90;5.03;;;-3.90;99.90;;;;;;5090916;28;20179;-66
2022/11/02 09:40:36;;;;;;;29.87;5.30;;;-3.50;99.90;;;;;;5097387;28;20616;-66
2022/11/02 09:43:05;;;;;;;19.03;4.67;;;-3.30;99.90;;;;;;5093851;28;20183;-71
2022/11/02 09:46:03;;;;;;;15.40;4.03;;;-4.00;99.90;;;;;;5095031;28;20457;-74
2022/11/02 09:48:56;;;;;;;11.60;4.00;;;-3.50;99.90;;;;;;5077272;28;20187;-67
2022/11/02 09:51:28;;;;;;;21.83;4.53;;;-3.00;99.90;;;;;;5089671;28;20453;-69
2022/11/02 09:54:05;;;;;;;14.30;4.67;;;-2.80;99.90;;;;;;5088391;28;20183;-73
2022/11/02 09:56:31;;;;;;;20.37;5.13;;;-2.40;99.90;;;;;;5094333;28;20174;-70
2022/11/02 09:59:14;;;;;;;12.23;3.63;;;-3.90;99.90;;;;;;5095752;28;20269;-67
2022/11/02 10:01:54;;;;;;;16.73;4.47;;;-2.80;99.90;;;;;;5081609;28;20198;-68
2022/11/02 10:04:47;;;;;;;15.37;4.53;;;-3.70;99.90;;;;;;5095018;28;20313;-70
2022/11/02 10:07:31;;;;;;;16.73;4.33;;;-5.50;99.90;;;;;;5093955;28;20218;-68
2022/11/02 10:10:16;;;;;;;12.87;3.90;;;-5.50;99.90;;;;;;5085897;28;20487;-75
2022/11/02 10:13:13;;;;;;;15.47;2.97;;;-4.70;99.90;;;;;;5090014;28;20175;-67
2022/11/02 10:15:44;;;;;;;16.80;3.43;;;-3.80;99.90;;;;;;5087282;28;20223;-66
2022/11/02 10:18:18;;;;;;;19.27;4.47;;;-4.40;99.90;;;;;;5095056;28;20249;-71
2022/11/02 10:20:46;;;;;;;15.60;3.87;;;-3.70;99.90;;;;;;5087915;28;20646;-69
2022/11/02 10:23:39;;;;;;;13.50;3.83;;;-3.80;99.90;;;;;;5089234;28;20262;-69
2022/11/02 10:26:05;;;;;;;19.63;3.73;;;-3.50;99.90;;;;;;5080095;28;20210;-69
2022/11/02 10:28:40;;;;;;;12.43;3.60;;;-3.60;99.90;;;;;;5085078;28;20214;-71
2022/11/02 10:31:29;;;;;;;22.10;5.20;;;-3.90;99.90;;;;;;5091754;28;20182;-67
2022/11/02 10:33:58;;;;;;;12.83;3.90;;;-4.80;99.90;;;;;;5088056;28;20584;-67
2022/11/02 10:36:42;;;;;;;11.60;3.77;;;-3.30;99.90;;;;;;5083892;28;20178;-67
2022/11/02 10:39:19;;;;;;;12.20;3.23;;;-2.90;99.90;;;;;;5086722;28;20182;-68
2022/11/02 10:41:44;;;;;;;12.00;3.03;;;-2.30;99.90;;;;;;5096439;28;20180;-69
2022/11/02 10:44:28;;;;;;;15.53;3.93;;;-4.30;99.90;;;;;;5096027;28;20258;-68
2022/11/02 10:46:57;;;;;;;9.03;3.17;;;-4.10;99.90;;;;;;5088898;28;20182;-69
2022/11/02 10:49:41;;;;;;;10.90;3.53;;;9.90;99.90;;;;;;5096619;28;20629;-69
2022/11/02 10:52:12;;;;;;;16.57;3.33;;;10.80;99.90;;;;;;5091030;28;20261;-69
2022/11/02 10:54:38;;;;;;;10.70;2.97;;;9.80;99.90;;;;;;5095942;28;20211;-68
2022/11/02 10:57:12;;;;;;;12.23;3.77;;;1.60;99.90;;;;;;5096396;28;20642;-71
2022/11/02 10:59:38;;;;;;;13.33;3.60;;;14.80;99.90;;;;;;5083999;28;20646;-70
2022/11/02 11:02:13;;;;;;;11.87;3.60;;;15.00;99.90;;;;;;5092998;28;20683;-70
2022/11/02 11:04:42;;;;;;;11.17;3.07;;;14.60;99.90;;;;;;5094213;28;20237;-69
2022/11/02 11:07:25;;;;;;;13.47;4.83;;;14.20;99.90;;;;;;5083538;28;20203;-70
2022/11/02 11:09:55;;;;;;;12.67;3.13;;;14.10;99.90;;;;;;5085895;28;20175;-71
2022/11/02 11:12:37;;;;;;;12.77;3.50;;;14.00;99.90;;;;;;5078206;28;20246;-70
2022/11/02 11:15:05;;;;;;;11.33;3.87;;;14.60;99.90;;;;;;5092659;28;20720;-71
2022/11/02 11:17:39;;;;;;;16.77;3.00;;;14.90;99.90;;;;;;5094501;28;20613;-70
2022/11/02 11:20:26;;;;;;;16.23;3.90;;;15.00;99.90;;;;;;5096310;28;20534;-72
2022/11/02 11:23:08;;;;;;;8.53;3.27;;;14.90;99.90;;;;;;5090061;28;20212;-70
2022/11/02 11:25:34;;;;;;;9.57;4.20;;;14.70;99.90;;;;;;5086205;28;20203;-67
2022/11/02 11:28:00;;;;;;;9.33;3.13;;;14.70;99.90;;;;;;5088330;28;20187;-68
2022/11/02 11:30:32;;;;;;;19.63;4.47;;;14.70;99.90;;;;;;5095839;28;20205;-67
2022/11/02 11:33:00;;;;;;;8.60;3.67;;;14.60;99.90;;;;;;5096009;28;20594;-70
2022/11/02 11:35:37;;;;;;;12.70;3.97;;;14.90;99.90;;;;;;5095143;28;20178;-69
2022/11/02 11:38:14;;;;;;;13.93;3.27;;;15.30;99.90;;;;;;5091172;28;20585;-68
2022/11/02 11:40:53;;;;;;;10.03;3.73;;;16.00;99.90;;;;;;5094089;28;20361;-70
2022/11/02 11:43:22;;;;;;;8.70;2.90;;;16.20;99.90;;;;;;5089470;28;20175;-71
2022/11/02 11:45:55;;;;;;;13.70;3.20;;;-17.70;99.90;;;;;;5085872;28;20450;-71
2022/11/02 11:48:38;;;;;;;12.97;3.17;;;-13.40;99.30;;;;;;5085057;28;20492;-72
2022/11/02 11:51:24;;;;;;;9.30;2.63;;;-14.40;99.10;;;;;;5086796;28;20194;-72
2022/11/02 11:54:25;;;;;;;16.57;3.97;;;-14.70;97.20;;;;;;5091191;28;20190;-71
2022/11/02 11:56:56;;;;;;;8.47;3.27;;;-7.10;97.80;;;;;;5086762;28;20201;-69
2022/11/02 11:59:24;;;;;;;9.03;2.63;;;-15.50;97.00;;;;;;5085541;28;20193;-70
2022/11/02 12:01:55;;;;;;;7.23;2.57;;;-5.70;99.50;;;;;;5088171;28;20674;-71
2022/11/02 12:04:33;;;;;;;6.53;2.53;;;-6.40;99.60;;;;;;5090783;28;20290;-70
2022/11/02 12:07:22;;;;;;;5.83;2.90;;;-11.60;97.70;;;;;;5086934;28;20175;-70
2022/11/02 12:10:27;;;;;;;10.50;3.47;;;-13.30;95.50;;;;;;5092973;28;20231;-69
2022/11/02 12:13:11;;;;;;;9.07;1.70;;;-13.20;94.40;;;;;;5071411;28;20190;-72
2022/11/02 12:15:39;;;;;;;6.97;2.17;;;-19.70;92.00;;;;;;5093192;28;20186;-68
2022/11/02 12:18:18;;;;;;;16.27;3.13;;;-19.30;90.70;;;;;;5077537;28;20179;-70
2022/11/02 12:21:16;;;;;;;6.90;2.20;;;-32.10;82.30;;;;;;5088439;28;20175;-69
2022/11/02 12:24:00;;;;;;;8.97;2.87;;;-40.00;73.60;;;;;;5094949;28;20672;-70
2022/11/02 12:26:33;;;;;;;9.50;2.17;;;-40.00;70.70;;;;;;5094385;28;20578;-69
2022/11/02 12:29:36;;;;;;;5.63;1.97;;;-29.20;77.30;;;;;;5090747;28;20243;-69
2022/11/02 12:32:17;;;;;;;5.17;2.07;;;-40.00;69.20;;;;;;5094274;28;20179;-69
2022/11/02 12:34:53;;;;;;;13.37;2.97;;;-31.00;76.50;;;;;;5081106;28;20244;-68
2022/11/02 12:37:38;;;;;;;5.70;2.30;;;-33.30;73.60;;;;;;5095614;28;20185;-72
2022/11/02 12:40:29;;;;;;;7.10;2.13;;;-40.00;69.90;;;;;;5094239;28;20205;-69
2022/11/02 12:43:29;;;;;;;13.10;2.33;;;-40.00;68.40;;;;;;5090936;28;20184;-69
2022/11/02 12:46:17;;;;;;;7.20;2.27;;;-40.00;68.40;;;;;;5088483;28;20467;-71
2022/11/02 12:49:08;;;;;;;10.40;2.53;;;-40.00;65.90;;;;;;5088099;28;20705;-69
2022/11/02 12:51:44;;;;;;;7.80;2.37;;;-40.00;66.00;;;;;;5086143;28;20497;-69
2022/11/02 12:54:14;;;;;;;9.53;3.77;;;-40.00;66.30;;;;;;5094400;28;20464;-71
2022/11/02 12:56:44;;;;;;;9.97;2.53;;;-37.70;71.50;;;;;;5088951;28;20206;-73
2022/11/02 12:59:27;;;;;;;11.97;2.43;;;-35.20;72.70;;;;;;5085823;28;20179;-69
2022/11/02 13:02:13;;;;;;;7.93;2.43;;;-32.10;73.70;;;;;;5085932;28;20270;-72
2022/11/02 13:05:02;;;;;;;7.27;2.00;;;-30.20;74.50;;;;;;5094070;28;20191;-70
2022/11/02 13:07:38;;;;;;;5.43;1.47;;;-34.20;70.90;;;;;;5085285;28;20292;-74
2022/11/02 13:10:18;;;;;;;8.77;1.93;;;-40.00;66.10;;;;;;5090491;28;20181;-70
2022/11/02 13:12:46;;;;;;;6.47;3.00;;;-40.00;65.40;;;;;;5086858;28;20179;-69